Time;durP1;ratioP1;P1;durP2;ratioP2;P2;SDS_P1;SDS_P2;PMS_P1;PMS_P2;Temp;Humidity;BMP_temperature;BMP_pressure;BME280_temperature;BME280_humidity;BME280_pressure;Samples;Min_cycle;Max_cycle;Signal;HPM_P1;HPM_P2
2024/02/01 00:00:57;;;;;;;10.65;5.90;;;;;;;7.92;100.00;100032.06;5071391;28;20070;-79
2024/02/01 00:03:22;;;;;;;14.77;7.03;;;;;;;7.96;100.00;100028.03;5054940;28;20060;-78
2024/02/01 00:05:48;;;;;;;14.93;7.00;;;;;;;7.97;100.00;100032.44;5077233;28;20021;-79
2024/02/01 00:08:13;;;;;;;14.35;7.10;;;;;;;7.91;100.00;100033.06;5051903;28;20020;-79
2024/02/01 00:10:38;;;;;;;12.77;6.68;;;;;;;7.84;100.00;100023.91;5047567;28;20197;-78
2024/02/01 00:13:04;;;;;;;13.40;6.32;;;;;;;7.96;100.00;100038.81;5050341;28;20102;-78
2024/02/01 00:15:29;;;;;;;10.75;5.53;;;;;;;7.99;100.00;100035.84;5047048;28;20021;-78
2024/02/01 00:17:55;;;;;;;12.27;6.20;;;;;;;7.96;100.00;100033.44;5053197;28;20028;-79
2024/02/01 00:20:20;;;;;;;10.70;5.90;;;;;;;7.94;100.00;100022.00;5039332;28;20021;-79
2024/02/01 00:22:45;;;;;;;9.65;5.70;;;;;;;8.03;100.00;100033.66;5053022;28;20016;-79
2024/02/01 00:25:11;;;;;;;12.75;5.47;;;;;;;8.03;100.00;100026.41;5048632;28;20029;-79
2024/02/01 00:27:36;;;;;;;10.05;6.20;;;;;;;7.88;100.00;99992.94;5068113;28;20024;-78
2024/02/01 00:30:02;;;;;;;10.05;5.35;;;;;;;8.13;100.00;100029.88;5054839;28;20028;-79
2024/02/01 00:32:27;;;;;;;12.40;5.78;;;;;;;8.16;100.00;100023.31;5052587;28;20327;-79
2024/02/01 00:34:53;;;;;;;8.95;4.75;;;;;;;8.15;100.00;100021.63;5072143;28;20285;-78
2024/02/01 00:37:18;;;;;;;8.10;4.72;;;;;;;8.20;100.00;100032.78;5049380;28;20239;-79
2024/02/01 00:39:43;;;;;;;9.68;4.47;;;;;;;8.20;100.00;100023.84;5049388;28;20328;-79
2024/02/01 00:42:09;;;;;;;9.65;4.75;;;;;;;8.10;100.00;100005.09;5070774;28;20050;-79
2024/02/01 00:44:34;;;;;;;9.60;5.00;;;;;;;8.11;100.00;99998.69;5052658;28;20063;-80
2024/02/01 00:47:00;;;;;;;10.93;5.38;;;;;;;8.28;100.00;100027.44;5053052;28;20021;-78
2024/02/01 00:49:25;;;;;;;14.02;6.43;;;;;;;8.23;100.00;100016.31;5065227;28;20343;-79
2024/02/01 00:51:50;;;;;;;11.07;6.00;;;;;;;8.36;100.00;100021.28;5047986;28;20016;-78
2024/02/01 00:54:16;;;;;;;11.88;5.90;;;;;;;8.41;100.00;100016.28;5048095;28;20024;-78
2024/02/01 00:56:41;;;;;;;9.18;5.43;;;;;;;8.54;100.00;100027.47;5040393;28;20021;-78
2024/02/01 00:59:06;;;;;;;11.05;5.55;;;;;;;8.39;100.00;100004.78;5067766;28;20031;-78
2024/02/01 01:01:32;;;;;;;12.77;5.65;;;;;;;8.62;100.00;100015.00;5046708;28;20067;-78
2024/02/01 01:03:58;;;;;;;13.68;5.60;;;;;;;8.72;100.00;100026.53;5047124;28;20079;-78
2024/02/01 01:06:24;;;;;;;8.43;5.38;;;;;;;8.79;100.00;100024.88;5047307;28;20071;-78
2024/02/01 01:08:49;;;;;;;12.27;5.20;;;;;;;8.71;100.00;100014.06;5048455;28;20319;-78
2024/02/01 01:11:15;;;;;;;13.13;4.97;;;;;;;8.73;100.00;100006.66;5066443;28;20108;-78
2024/02/01 01:13:40;;;;;;;12.80;5.40;;;;;;;8.83;100.00;100022.69;5044649;28;20024;-78
2024/02/01 01:16:06;;;;;;;12.23;5.93;;;;;;;8.80;100.00;100018.47;5046176;28;20266;-78
2024/02/01 01:18:32;;;;;;;10.15;4.93;;;;;;;8.90;100.00;100023.75;5067388;28;20040;-77
2024/02/01 01:20:58;;;;;;;10.70;4.78;;;;;;;8.81;100.00;100013.94;5047802;28;20021;-78
2024/02/01 01:23:24;;;;;;;10.25;5.10;;;;;;;8.93;100.00;100026.13;5064019;28;20033;-78
2024/02/01 01:25:49;;;;;;;17.85;5.63;;;;;;;8.84;100.00;100016.31;5048950;28;20032;-78
2024/02/01 01:28:14;;;;;;;11.50;5.60;;;;;;;8.87;100.00;100018.69;5073785;28;20021;-78
2024/02/01 01:30:41;;;;;;;13.05;5.68;;;;;;;8.92;100.00;100019.03;5063873;28;20029;-78
2024/02/01 01:33:06;;;;;;;13.13;5.03;;;;;;;8.81;100.00;100009.38;5068687;28;20243;-78
2024/02/01 01:35:31;;;;;;;11.68;5.50;;;;;;;8.86;100.00;100017.84;5043231;28;20029;-78
2024/02/01 01:37:57;;;;;;;8.68;5.05;;;;;;;8.90;100.00;100029.97;5043886;28;20025;-78
2024/02/01 01:40:23;;;;;;;10.45;4.68;;;;;;;8.79;100.00;100022.19;5061687;28;20024;-78
2024/02/01 01:42:50;;;;;;;9.45;4.80;;;;;;;8.77;100.00;100026.91;5065213;28;20029;-78
2024/02/01 01:45:15;;;;;;;10.43;4.50;;;;;;;8.71;100.00;100032.94;5060158;28;20430;-78
2024/02/01 01:47:40;;;;;;;13.77;5.07;;;;;;;8.62;100.00;100025.81;5054560;28;20029;-78
2024/02/01 01:50:06;;;;;;;16.08;5.15;;;;;;;8.75;100.00;100042.41;5052921;28;20206;-79
2024/02/01 01:52:34;;;;;;;7.72;4.57;;;;;;;8.56;100.00;100011.94;5060388;28;20024;-78
2024/02/01 01:55:00;;;;;;;9.35;4.40;;;;;;;8.56;100.00;100022.75;5062507;28;20029;-79
2024/02/01 01:57:27;;;;;;;9.38;4.70;;;;;;;8.58;100.00;100036.09;5044741;28;20100;-78
2024/02/01 01:59:55;;;;;;;8.90;4.53;;;;;;;8.61;100.00;100037.63;5048277;28;20299;-78
2024/02/01 02:02:21;;;;;;;8.52;4.25;;;;;;;8.39;100.00;100004.78;5066197;28;20016;-78
2024/02/01 02:04:49;;;;;;;8.85;4.13;;;;;;;8.38;100.00;100013.84;5039720;28;20025;-78
2024/02/01 02:07:15;;;;;;;7.20;4.00;;;;;;;8.31;100.00;99993.94;5052759;28;20025;-78
2024/02/01 02:09:40;;;;;;;7.75;4.20;;;;;;;8.36;100.00;100010.47;5047877;28;20193;-78
2024/02/01 02:12:05;;;;;;;8.60;3.90;;;;;;;8.35;100.00;100006.06;5042419;28;20028;-78
2024/02/01 02:14:31;;;;;;;9.50;3.90;;;;;;;8.45;100.00;100017.63;5044085;28;20211;-78
2024/02/01 02:16:56;;;;;;;8.90;4.13;;;;;;;8.37;100.00;100008.63;5062319;28;20219;-78
2024/02/01 02:19:21;;;;;;;13.38;4.15;;;;;;;8.31;100.00;100007.41;5046293;28;20055;-78
2024/02/01 02:21:48;;;;;;;10.88;3.90;;;;;;;8.43;100.00;100006.16;5064156;28;20020;-78
2024/02/01 02:24:15;;;;;;;8.45;4.05;;;;;;;8.43;100.00;100006.16;5069583;28;20025;-78
2024/02/01 02:26:40;;;;;;;10.93;4.22;;;;;;;8.33;100.00;100003.56;5043938;28;20105;-78
2024/02/01 02:29:06;;;;;;;12.40;4.28;;;;;;;8.20;100.00;99973.50;5046903;28;20119;-78
2024/02/01 02:31:31;;;;;;;6.57;4.00;;;;;;;8.10;100.00;99981.66;5046414;28;20016;-78
2024/02/01 02:33:56;;;;;;;5.57;3.40;;;;;;;8.06;100.00;99988.38;5045038;28;20328;-77
2024/02/01 02:36:22;;;;;;;6.63;3.75;;;;;;;8.05;100.00;99997.47;5046165;28;20340;-78
2024/02/01 02:38:47;;;;;;;8.93;3.47;;;;;;;8.12;100.00;100003.94;5044109;28;20016;-77
2024/02/01 02:41:12;;;;;;;8.02;3.50;;;;;;;8.22;100.00;100019.97;5051647;28;20024;-78
2024/02/01 02:43:38;;;;;;;8.35;3.72;;;;;;;8.24;100.00;100020.66;5048365;28;20220;-78
2024/02/01 02:46:03;;;;;;;7.47;3.72;;;;;;;8.14;100.00;100011.84;5040630;28;20025;-78
2024/02/01 02:48:28;;;;;;;10.02;3.83;;;;;;;8.11;100.00;100021.09;5057487;28;20036;-78
2024/02/01 02:50:54;;;;;;;7.43;3.72;;;;;;;7.98;100.00;99996.41;5072904;28;20044;-78
2024/02/01 02:53:19;;;;;;;7.07;3.75;;;;;;;7.91;100.00;99992.63;5046575;28;20013;-78
2024/02/01 02:55:44;;;;;;;7.32;3.78;;;;;;;7.93;100.00;100000.56;5055222;28;20021;-78
2024/02/01 02:58:09;;;;;;;7.82;4.00;;;;;;;7.94;100.00;100005.81;5043845;28;20020;-78
2024/02/01 03:00:35;;;;;;;6.85;3.45;;;;;;;7.98;100.00;100003.66;5046828;28;20211;-78
2024/02/01 03:03:00;;;;;;;6.60;3.38;;;;;;;7.95;100.00;100001.28;5038192;28;20076;-78
2024/02/01 03:05:26;;;;;;;7.50;3.50;;;;;;;7.99;100.00;100005.31;5057847;28;20113;-78
2024/02/01 03:07:53;;;;;;;10.13;3.63;;;;;;;7.92;100.00;99997.03;5062351;28;20168;-78
2024/02/01 03:10:19;;;;;;;6.72;3.50;;;;;;;8.03;100.00;99991.38;5039685;28;20303;-78
2024/02/01 03:12:45;;;;;;;7.22;3.08;;;;;;;7.88;100.00;99963.31;5045054;28;20024;-78
2024/02/01 03:15:10;;;;;;;6.50;3.22;;;;;;;8.01;100.00;99982.59;5057142;28;20049;-78
2024/02/01 03:17:37;;;;;;;6.18;3.40;;;;;;;7.91;100.00;99957.59;5046609;28;20016;-78
2024/02/01 03:20:17;;;;;;;6.53;3.03;;;;;;;8.03;100.00;99977.06;5048592;28;20023;-78
2024/02/01 03:22:46;;;;;;;5.65;2.63;;;;;;;8.04;100.00;99974.22;5060119;28;20053;-78
2024/02/01 03:25:12;;;;;;;4.78;2.63;;;;;;;8.11;100.00;99985.22;5072460;28;20039;-78
2024/02/01 03:27:42;;;;;;;5.47;2.53;;;;;;;8.03;100.00;99964.44;5048401;28;20336;-78
2024/02/01 03:30:11;;;;;;;5.30;2.42;;;;;;;8.05;100.00;99958.91;5049756;28;20056;-78
2024/02/01 03:32:37;;;;;;;5.13;2.53;;;;;;;8.15;100.00;99974.94;5052894;28;20216;-78
2024/02/01 03:35:04;;;;;;;4.50;2.13;;;;;;;8.17;100.00;99965.69;5041626;28;20075;-78
2024/02/01 03:37:29;;;;;;;6.20;2.40;;;;;;;7.85;100.00;99915.13;5066270;22;20660;-77
2024/02/01 03:39:54;;;;;;;5.53;2.08;;;;;;;7.94;100.00;99919.59;5080514;28;20047;-78
2024/02/01 03:42:20;;;;;;;4.45;2.35;;;;;;;7.83;100.00;99918.00;5075435;28;20020;-78
2024/02/01 03:44:45;;;;;;;4.22;2.10;;;;;;;8.06;100.00;99947.94;5079502;28;20215;-77
2024/02/01 03:47:11;;;;;;;5.03;2.22;;;;;;;8.10;100.00;99954.72;5085720;28;20044;-77
2024/02/01 03:49:39;;;;;;;4.78;2.92;;;;;;;7.78;100.00;99897.91;5078488;28;20032;-78
2024/02/01 03:52:06;;;;;;;7.50;2.83;;;;;;;7.92;100.00;99916.19;5077284;28;20020;-78
2024/02/01 03:54:31;;;;;;;7.20;2.70;;;;;;;7.77;100.00;99907.00;5075916;28;20091;-78
2024/02/01 03:56:57;;;;;;;6.65;2.70;;;;;;;8.16;100.00;99972.09;5078566;28;20021;-78
2024/02/01 03:59:22;;;;;;;3.72;2.35;;;;;;;7.78;100.00;99911.38;5072341;28;20032;-79
2024/02/01 04:01:47;;;;;;;7.20;2.50;;;;;;;8.09;100.00;99971.88;5073671;28;20017;-78
2024/02/01 04:04:17;;;;;;;4.25;2.25;;;;;;;8.26;100.00;99999.78;5084880;28;20028;-79
2024/02/01 04:06:50;;;;;;;7.07;2.50;;;;;;;8.16;100.00;99979.34;5077428;28;20016;-78
2024/02/01 04:09:28;;;;;;;5.00;2.65;;;;;;;8.24;100.00;99987.47;5088942;28;20043;-80
2024/02/01 04:11:53;;;;;;;4.18;2.80;;;;;;;8.05;100.00;99966.97;5078821;28;20212;-79
2024/02/01 04:14:18;;;;;;;5.40;2.60;;;;;;;8.03;100.00;99944.72;5082057;28;20096;-78
2024/02/01 04:16:45;;;;;;;4.97;2.65;;;;;;;8.20;100.00;99967.22;5075705;28;20025;-77
2024/02/01 04:19:12;;;;;;;4.72;2.75;;;;;;;8.03;100.00;99950.97;5074978;28;20358;-79
2024/02/01 04:21:38;;;;;;;5.05;2.40;;;;;;;8.02;100.00;99953.84;5080558;28;20319;-79
2024/02/01 04:24:03;;;;;;;7.53;2.75;;;;;;;8.12;100.00;99960.81;5079001;28;20054;-79
2024/02/01 04:26:29;;;;;;;4.65;2.70;;;;;;;8.08;100.00;99950.50;5075017;28;20393;-77
2024/02/01 04:28:54;;;;;;;8.35;2.30;;;;;;;8.08;100.00;99955.88;5076294;28;20027;-77
2024/02/01 04:31:19;;;;;;;3.10;2.30;;;;;;;8.06;100.00;99947.94;5077145;28;20033;-75
2024/02/01 04:33:46;;;;;;;3.97;2.08;;;;;;;8.09;100.00;99944.09;5050220;28;20108;-75
2024/02/01 04:36:11;;;;;;;4.63;2.42;;;;;;;7.98;100.00;99957.84;5083053;28;21395;-75
2024/02/01 04:38:36;;;;;;;4.35;2.78;;;;;;;7.96;100.00;99952.59;5072867;28;20029;-77
2024/02/01 04:41:10;;;;;;;3.88;2.47;;;;;;;7.97;100.00;99965.06;5076773;28;20019;-78
2024/02/01 04:43:36;;;;;;;7.55;2.67;;;;;;;7.99;100.00;99967.59;5072142;28;20284;-78
2024/02/01 04:46:01;;;;;;;9.27;2.70;;;;;;;7.96;100.00;99968.75;5078016;28;20032;-77
2024/02/01 04:48:26;;;;;;;13.02;2.53;;;;;;;7.82;100.00;99953.19;5072378;28;20046;-77
2024/02/01 04:50:52;;;;;;;5.05;2.67;;;;;;;7.96;100.00;99965.22;5080595;28;20361;-77
2024/02/01 04:53:18;;;;;;;5.97;2.53;;;;;;;7.84;100.00;99943.09;5077041;28;20029;-77
2024/02/01 04:55:43;;;;;;;5.63;2.72;;;;;;;7.94;100.00;99973.47;5079087;28;20021;-78
2024/02/01 04:58:08;;;;;;;3.97;2.22;;;;;;;7.89;100.00;99968.56;5082839;28;20342;-75
2024/02/01 05:00:33;;;;;;;4.68;2.63;;;;;;;7.81;100.00;99965.81;5075659;28;20020;-76
2024/02/01 05:02:59;;;;;;;4.30;2.20;;;;;;;7.83;100.00;99973.72;5081362;28;20054;-78
2024/02/01 05:05:25;;;;;;;4.35;2.53;;;;;;;7.68;100.00;99946.50;5083308;28;20021;-82
2024/02/01 05:07:50;;;;;;;6.85;2.90;;;;;;;7.68;100.00;99968.91;5077091;28;20028;-79
2024/02/01 05:10:15;;;;;;;4.50;2.47;;;;;;;7.62;100.00;99971.34;5086591;28;20030;-81
2024/02/01 05:12:42;;;;;;;9.25;2.55;;;;;;;7.64;100.00;99980.97;5070130;28;20755;-76
2024/02/01 05:15:09;;;;;;;10.15;2.50;;;;;;;7.42;100.00;99947.31;5077836;28;20028;-79
2024/02/01 05:17:35;;;;;;;6.97;2.50;;;;;;;7.43;100.00;99956.22;5076917;28;20053;-80
2024/02/01 05:20:01;;;;;;;6.95;2.30;;;;;;;7.53;100.00;99975.00;5083293;28;20062;-76
2024/02/01 05:22:26;;;;;;;3.50;2.10;;;;;;;7.39;100.00;99958.41;5081582;28;20083;-75
2024/02/01 05:24:51;;;;;;;4.47;1.90;;;;;;;7.39;100.00;99944.09;5073501;28;20021;-76
2024/02/01 05:27:20;;;;;;;4.25;2.13;;;;;;;7.49;100.00;99966.38;5078421;28;20028;-76
2024/02/01 05:29:49;;;;;;;4.55;2.28;;;;;;;7.45;100.00;99949.69;5069527;28;20315;-75
2024/02/01 05:32:15;;;;;;;4.47;2.58;;;;;;;7.27;100.00;99924.63;5077988;28;20319;-78
2024/02/01 05:34:47;;;;;;;5.60;2.30;;;;;;;7.40;100.00;99949.31;5074092;28;20016;-77
2024/02/01 05:37:13;;;;;;;3.60;2.05;;;;;;;7.35;100.00;99954.31;5083668;28;20052;-78
2024/02/01 05:39:44;;;;;;;4.70;2.30;;;;;;;7.27;100.00;99943.47;5073020;28;20017;-81
2024/02/01 05:42:13;;;;;;;3.28;2.03;;;;;;;7.36;100.00;99969.47;5079213;28;20028;-79
2024/02/01 05:44:38;;;;;;;4.10;2.13;;;;;;;7.34;100.00;99965.25;5074085;28;20025;-79
2024/02/01 05:47:05;;;;;;;4.38;1.92;;;;;;;7.32;100.00;99980.69;5082439;28;20046;-76
2024/02/01 05:49:33;;;;;;;6.65;2.85;;;;;;;7.10;100.00;99955.06;5081074;28;20370;-77
2024/02/01 05:52:03;;;;;;;5.40;2.00;;;;;;;7.32;100.00;99992.31;5076870;28;20032;-75
2024/02/01 05:54:30;;;;;;;4.60;2.28;;;;;;;7.16;100.00;99976.84;5073509;28;20031;-81
2024/02/01 05:56:56;;;;;;;4.65;2.80;;;;;;;7.18;100.00;99992.84;5081545;28;20024;-77
2024/02/01 05:59:21;;;;;;;8.13;3.13;;;;;;;7.30;100.00;100001.53;5078222;28;20032;-83
2024/02/01 06:01:48;;;;;;;4.30;2.67;;;;;;;7.07;100.00;99995.72;5075500;28;20315;-79
2024/02/01 06:06:54;;;;;;;5.80;2.88;;;;;;;7.17;100.00;100008.13;5056484;28;20052;-61
2024/02/01 06:09:20;;;;;;;7.53;2.83;;;;;;;7.20;100.00;99994.38;5055015;28;20521;-61
2024/02/01 06:11:50;;;;;;;7.05;2.95;;;;;;;7.14;100.00;99994.13;5060983;28;20570;-61
2024/02/01 06:14:15;;;;;;;5.18;3.10;;;;;;;7.08;100.00;100002.81;5050614;28;20119;-61
2024/02/01 06:16:43;;;;;;;6.70;3.88;;;;;;;7.05;100.00;100000.41;5053113;28;20356;-61
2024/02/01 06:19:09;;;;;;;5.25;3.60;;;;;;;7.00;100.00;99996.34;5060835;28;20035;-61
2024/02/01 06:21:35;;;;;;;7.22;4.00;;;;;;;6.98;100.00;100001.03;5063538;28;20020;-62
2024/02/01 06:24:00;;;;;;;7.60;3.85;;;;;;;6.96;100.00;100003.00;5051839;28;20472;-61
2024/02/01 06:26:28;;;;;;;7.65;4.03;;;;;;;6.97;100.00;100020.03;5051069;28;20808;-62
2024/02/01 06:28:56;;;;;;;9.27;4.50;;;;;;;6.96;100.00;100010.25;5054314;28;20023;-62
2024/02/01 06:31:24;;;;;;;9.63;4.57;;;;;;;6.94;100.00;100025.69;5043987;28;20413;-62
2024/02/01 06:33:53;;;;;;;17.93;5.03;;;;;;;6.90;100.00;100027.84;5052011;28;20028;-62
2024/02/01 06:36:19;;;;;;;10.23;4.72;;;;;;;6.86;100.00;100037.19;5058407;28;20466;-63
2024/02/01 06:42:01;;;;;;;10.02;4.85;;;;;;;6.87;100.00;100033.53;5018400;28;20051;-62
2024/02/01 06:44:26;;;;;;;12.13;5.38;;;;;;;6.88;100.00;100035.22;5044149;28;20540;-63
2024/02/01 06:52:13;;;;;;;14.52;5.47;;;;;;;6.83;100.00;100047.41;5051245;28;20056;-62
2024/02/01 06:54:49;;;;;;;9.93;5.35;;;;;;;6.84;100.00;100049.97;5046292;28;20059;-61
2024/02/01 06:57:18;;;;;;;14.73;6.03;;;;;;;6.77;100.00;100025.50;5063848;28;20035;-62
2024/02/01 07:00:06;;;;;;;11.48;5.47;;;;;;;6.89;100.00;100028.84;5066998;28;20037;-61
2024/02/01 07:02:35;;;;;;;10.20;5.47;;;;;;;6.78;100.00;100016.41;5056026;28;20079;-61
2024/02/01 07:05:36;;;;;;;9.63;5.00;;;;;;;6.86;100.00;100031.81;5054471;28;20183;-61
2024/02/01 07:08:12;;;;;;;9.88;5.28;;;;;;;6.87;100.00;100019.22;5046354;28;20043;-61
2024/02/01 07:10:47;;;;;;;14.07;5.13;;;;;;;6.93;100.00;100040.16;5032024;28;20056;-61
2024/02/01 07:13:34;;;;;;;10.15;4.45;;;;;;;6.98;100.00;100029.78;5040095;28;20033;-64
2024/02/01 07:16:13;;;;;;;10.88;5.13;;;;;;;6.93;100.00;100034.75;5054074;28;20460;-64
2024/02/01 07:18:43;;;;;;;10.52;4.60;;;;;;;6.98;100.00;100043.25;5053186;28;20063;-64
2024/02/01 07:21:29;;;;;;;12.57;5.43;;;;;;;7.03;100.00;100032.88;5051043;28;20108;-64
2024/02/01 07:24:07;;;;;;;16.30;5.30;;;;;;;6.94;100.00;100033.75;5054749;28;20025;-64
2024/02/01 07:57:35;;;;;;;14.38;5.28;;;;;;;6.97;100.00;100052.31;5047290;28;20075;-63
2024/02/01 07:59:26;;;;;;;21.83;9.63;;;;;;;6.92;100.00;100086.88;5061846;28;20059;-63
2024/02/01 08:10:04;;;;;;;7.55;3.45;;;;;;;6.99;100.00;100074.50;5051527;28;20044;-63
2024/02/01 08:12:33;;;;;;;6.03;3.10;;;;;;;7.07;100.00;100085.38;5057402;28;20037;-64
2024/02/01 08:14:59;;;;;;;5.63;2.40;;;;;;;7.15;100.00;100079.25;5052741;28;20066;-63
2024/02/01 08:17:24;;;;;;;5.65;2.63;;;;;;;7.20;100.00;100091.28;5065563;28;20373;-64
2024/02/01 08:19:50;;;;;;;7.65;2.55;;;;;;;7.21;100.00;100084.06;5059695;28;20578;-64
2024/02/01 08:22:15;;;;;;;5.05;2.50;;;;;;;7.27;100.00;100087.97;5067415;28;20426;-63
2024/02/01 08:24:41;;;;;;;6.40;2.30;;;;;;;7.23;100.00;100093.66;5057805;28;20527;-64
2024/02/01 08:27:07;;;;;;;6.32;2.30;;;;;;;7.18;100.00;100084.34;5053540;28;20036;-64
2024/02/01 08:29:36;;;;;;;5.88;2.67;;;;;;;7.26;100.00;100092.53;5064238;28;20342;-63
2024/02/01 08:32:03;;;;;;;4.50;2.22;;;;;;;7.25;100.00;100094.34;5055267;28;20075;-63
2024/02/01 08:34:28;;;;;;;6.38;2.47;;;;;;;7.39;100.00;100089.47;5058202;28;20044;-64
2024/02/01 08:36:54;;;;;;;3.10;2.10;;;;;;;7.35;100.00;100096.16;5056141;28;20025;-63
2024/02/01 08:39:19;;;;;;;3.13;2.03;;;;;;;7.49;100.00;100098.31;5053838;28;20029;-64
2024/02/01 08:41:45;;;;;;;5.80;2.58;;;;;;;7.47;100.00;100084.19;5053844;28;20024;-63
2024/02/01 08:44:10;;;;;;;2.95;1.92;;;;;;;7.58;100.00;100107.34;5064378;28;20031;-63
2024/02/01 08:46:36;;;;;;;4.40;2.10;;;;;;;7.56;100.00;100093.19;5057156;28;20210;-65
2024/02/01 08:49:02;;;;;;;5.70;2.10;;;;;;;7.63;100.00;100100.50;5055814;28;20100;-65
2024/02/01 08:51:27;;;;;;;4.75;2.20;;;;;;;7.69;100.00;100105.25;5053907;28;20032;-66
2024/02/01 08:53:53;;;;;;;3.80;2.00;;;;;;;7.66;100.00;100104.75;5052832;28;20465;-65
2024/02/01 08:56:21;;;;;;;4.32;2.20;;;;;;;7.64;100.00;100107.56;5053672;28;20029;-65
2024/02/01 08:58:48;;;;;;;3.97;2.13;;;;;;;7.70;100.00;100106.09;5056430;28;20396;-66
2024/02/01 09:01:27;;;;;;;3.95;2.00;;;;;;;7.73;100.00;100116.59;5056966;28;20028;-65
2024/02/01 09:03:52;;;;;;;3.15;1.70;;;;;;;7.72;100.00;100120.28;5057899;28;20048;-65
2024/02/01 09:06:18;;;;;;;4.43;2.03;;;;;;;7.71;100.00;100117.75;5053821;28;20079;-65
2024/02/01 09:08:44;;;;;;;2.90;1.80;;;;;;;7.75;100.00;100124.50;5051165;28;20156;-65
2024/02/01 09:11:17;;;;;;;4.18;2.33;;;;;;;7.72;100.00;100130.22;5059376;28;20032;-65
2024/02/01 09:13:46;;;;;;;4.10;1.88;;;;;;;7.86;100.00;100133.25;5054113;28;20054;-64
2024/02/01 09:16:24;;;;;;;2.78;1.50;;;;;;;7.96;100.00;100125.06;5049812;28;20025;-64
2024/02/01 09:18:51;;;;;;;3.78;1.70;;;;;;;8.00;100.00;100126.47;5057987;28;20325;-63
2024/02/01 09:21:18;;;;;;;3.83;1.55;;;;;;;8.06;100.00;100127.69;5063578;28;20036;-64
2024/02/01 09:23:43;;;;;;;5.40;1.50;;;;;;;8.04;100.00;100127.84;5055408;28;20405;-63
2024/02/01 09:26:09;;;;;;;2.92;1.50;;;;;;;7.98;100.00;100133.84;5056402;28;20025;-63
2024/02/01 09:28:34;;;;;;;4.20;1.92;;;;;;;8.04;100.00;100118.91;5053462;28;20027;-63
2024/02/01 09:31:00;;;;;;;3.08;1.63;;;;;;;7.99;100.00;100124.78;5058940;28;20029;-63
2024/02/01 09:33:30;;;;;;;4.68;1.92;;;;;;;8.04;100.00;100133.25;5058663;28;20037;-63
2024/02/01 09:35:56;;;;;;;1.77;1.30;;;;;;;8.13;100.00;100124.22;5052314;28;20480;-65
2024/02/01 09:38:23;;;;;;;3.63;1.60;;;;;;;8.00;100.00;100123.75;5085255;22;20044;-86
2024/02/01 09:40:48;;;;;;;2.10;1.33;;;;;;;8.16;100.00;100133.84;5080587;28;20060;-75
2024/02/01 09:43:21;;;;;;;2.75;1.40;;;;;;;8.10;100.00;100113.75;5060647;28;20024;-70
2024/02/01 09:45:48;;;;;;;4.53;1.35;;;;;;;8.28;100.00;100138.00;5061862;28;20096;-73
2024/02/01 09:48:18;;;;;;;3.10;1.33;;;;;;;8.29;100.00;100138.84;5076933;28;20027;-69
2024/02/01 09:50:54;;;;;;;2.22;1.20;;;;;;;8.31;100.00;100140.38;5090345;28;20035;-82
2024/02/01 09:53:24;;;;;;;3.88;1.65;;;;;;;8.07;100.00;100134.78;5090148;28;20088;-82
2024/02/01 09:55:50;;;;;;;2.70;1.42;;;;;;;8.24;100.00;100147.38;5087669;28;20028;-81
2024/02/01 09:58:17;;;;;;;2.78;1.40;;;;;;;8.09;100.00;100139.00;5064537;28;20375;-80
2024/02/01 10:00:44;;;;;;;2.88;1.40;;;;;;;8.13;100.00;100144.94;5058994;28;20096;-75
2024/02/01 10:03:12;;;;;;;3.60;1.55;;;;;;;8.07;100.00;100145.56;5060841;28;20069;-74
2024/02/01 10:05:37;;;;;;;3.70;1.70;;;;;;;8.22;100.00;100138.59;5069807;28;20029;-74
2024/02/01 10:08:12;;;;;;;3.65;1.55;;;;;;;8.24;100.00;100149.25;5075397;28;20027;-74
2024/02/01 10:10:38;;;;;;;2.97;1.60;;;;;;;8.30;100.00;100143.22;5085814;28;20025;-80
2024/02/01 10:13:06;;;;;;;2.85;1.20;;;;;;;8.26;100.00;100141.84;5069227;28;20110;-82
2024/02/01 10:15:32;;;;;;;3.78;1.50;;;;;;;8.08;100.00;100129.22;5069961;28;20027;-82
2024/02/01 10:17:59;;;;;;;3.38;1.52;;;;;;;8.21;100.00;100144.16;5068758;28;20044;-86
2024/02/01 10:20:38;;;;;;;5.55;2.28;;;;;;;8.31;100.00;100142.25;5063179;28;20025;-84
2024/02/01 10:23:05;;;;;;;;;;;;;;;8.23;100.00;100156.50;5063318;28;20017;-85
2024/02/01 10:25:38;;;;;;;1.95;1.13;;;;;;;8.11;100.00;100133.47;5063151;28;19914;-86
2024/02/01 10:28:06;;;;;;;2.53;1.45;;;;;;;8.39;100.00;100154.94;5062507;28;20326;-84
2024/02/01 10:30:32;;;;;;;3.33;1.50;;;;;;;8.38;100.00;100153.22;5068746;28;20052;-85
2024/02/01 10:33:01;;;;;;;3.35;1.52;;;;;;;8.34;100.00;100145.44;5059344;28;20107;-85
2024/02/01 10:35:30;;;;;;;2.80;1.80;;;;;;;8.41;100.00;100143.03;5057721;28;20332;-75
2024/02/01 10:37:55;;;;;;;4.60;1.27;;;;;;;8.35;100.00;100139.03;5056747;28;20326;-76
2024/02/01 10:40:28;;;;;;;1.55;1.13;;;;;;;8.54;100.00;100135.38;5063817;28;20054;-75
2024/02/01 10:42:59;;;;;;;3.03;1.30;;;;;;;8.50;100.00;100120.50;5060583;28;20017;-75
2024/02/01 10:45:30;;;;;;;2.28;1.23;;;;;;;8.53;100.00;100135.50;5062062;28;20578;-76
2024/02/01 10:47:59;;;;;;;2.97;1.40;;;;;;;8.38;100.00;100113.63;5075296;28;20031;-77
2024/02/01 10:50:32;;;;;;;2.65;1.45;;;;;;;8.47;100.00;100136.16;5061428;28;20031;-75
2024/02/01 10:52:59;;;;;;;3.83;1.63;;;;;;;8.47;100.00;100123.50;5061954;28;20143;-76
2024/02/01 10:55:26;;;;;;;2.20;1.40;;;;;;;8.41;100.00;100097.19;5072904;28;20498;-76
2024/02/01 10:57:53;;;;;;;1.80;1.20;;;;;;;8.69;100.00;100108.63;5083013;28;20016;-75
2024/02/01 11:00:22;;;;;;;1.73;1.10;;;;;;;8.84;100.00;100127.81;5062710;28;20311;-75
2024/02/01 11:02:52;;;;;;;1.35;1.02;;;;;;;8.84;100.00;100111.59;5059615;28;20025;-75
2024/02/01 11:05:17;;;;;;;1.83;1.15;;;;;;;8.82;100.00;100115.47;5076418;28;20016;-75
2024/02/01 11:07:42;;;;;;;1.50;1.00;;;;;;;9.05;100.00;100115.78;5059943;28;20066;-74
2024/02/01 11:10:13;;;;;;;4.28;1.30;;;;;;;9.04;100.00;100108.66;5075468;28;20188;-74
2024/02/01 11:12:38;;;;;;;2.15;1.20;;;;;;;8.99;100.00;100111.88;5064141;28;20028;-75
2024/02/01 11:15:05;;;;;;;3.13;1.42;;;;;;;8.64;100.00;100080.44;5076411;28;20031;-75
2024/02/01 11:17:31;;;;;;;1.63;1.00;;;;;;;8.93;100.00;100107.97;5058174;28;20113;-75
2024/02/01 11:19:56;;;;;;;3.03;1.23;;;;;;;8.82;100.00;100075.84;5078340;28;20224;-75
2024/02/01 11:22:21;;;;;;;2.90;1.02;;;;;;;8.91;100.00;100109.97;5057770;28;20129;-75
2024/02/01 11:24:47;;;;;;;1.92;1.30;;;;;;;9.05;100.00;100104.97;5074238;28;20020;-75
2024/02/01 11:27:20;;;;;;;3.22;1.30;;;;;;;8.84;100.00;100106.22;5081584;28;20095;-75
2024/02/01 11:29:47;;;;;;;1.25;0.98;;;;;;;9.04;100.00;100105.97;5057948;28;20028;-70
2024/02/01 11:32:17;;;;;;;1.40;0.95;;;;;;;8.99;100.00;100095.66;5073741;28;20020;-71
2024/02/01 11:34:49;;;;;;;2.38;1.60;;;;;;;9.06;100.00;100085.06;5088807;28;20079;-70
2024/02/01 11:37:16;;;;;;;2.08;1.25;;;;;;;9.11;100.00;100069.22;5072980;28;20209;-70
2024/02/01 11:39:49;;;;;;;1.45;1.20;;;;;;;9.35;100.00;100100.84;5064454;28;20364;-71
2024/02/01 11:42:15;;;;;;;2.17;1.30;;;;;;;9.38;100.00;100087.88;5051084;28;20028;-70
2024/02/01 11:44:41;;;;;;;3.72;1.70;;;;;;;9.56;100.00;100092.31;5050655;28;20040;-71
2024/02/01 11:47:07;;;;;;;3.72;1.60;;;;;;;9.58;100.00;100093.00;5066256;28;20012;-70
2024/02/01 11:49:36;;;;;;;2.60;1.77;;;;;;;9.68;100.00;100082.88;5067726;28;20027;-70
2024/02/01 11:52:15;;;;;;;4.80;2.35;;;;;;;9.58;100.00;100082.19;5073274;28;20036;-70
2024/02/01 11:54:47;;;;;;;3.35;1.90;;;;;;;9.62;100.00;100080.88;5080834;28;20077;-70
2024/02/01 11:57:17;;;;;;;2.22;1.63;;;;;;;9.67;100.00;100089.31;5081258;28;20066;-70
2024/02/01 11:59:45;;;;;;;1.85;1.30;;;;;;;9.28;100.00;100062.88;5082212;28;20147;-71
2024/02/01 12:02:11;;;;;;;1.90;1.48;;;;;;;9.39;100.00;100061.72;5077264;28;20032;-70
2024/02/01 12:04:37;;;;;;;2.58;1.58;;;;;;;9.58;100.00;100093.84;5060690;28;20028;-70
2024/02/01 12:07:05;;;;;;;3.00;1.50;;;;;;;9.70;100.00;100082.75;5081734;28;20661;-70
2024/02/01 12:09:32;;;;;;;2.47;1.42;;;;;;;9.49;100.00;100061.59;5079286;28;20080;-69
2024/02/01 12:11:58;;;;;;;3.97;1.48;;;;;;;9.40;100.00;100060.69;5082265;28;20031;-70
2024/02/01 12:14:23;;;;;;;3.28;1.75;;;;;;;9.55;100.00;100079.81;5062055;28;20025;-72
2024/02/01 12:16:53;;;;;;;3.40;1.90;;;;;;;9.52;100.00;100085.56;5065300;28;20034;-71